Time;durP1;ratioP1;P1;durP2;ratioP2;P2;SDS_P1;SDS_P2;PMS_P1;PMS_P2;Temp;Humidity;BMP_temperature;BMP_pressure;BME280_temperature;BME280_humidity;BME280_pressure;Samples;Min_cycle;Max_cycle;Signal;HPM_P1;HPM_P2
2022/12/23 00:00:54;;;;;;;28.17;15.60;;;6.30;99.90;;;;;;5035829;28;20199;-55
2022/12/23 00:03:22;;;;;;;35.10;16.00;;;6.30;99.90;;;;;;5034843;28;20272;-46
2022/12/23 00:05:50;;;;;;;35.43;16.83;;;6.30;99.90;;;;;;5021461;28;20682;-57
2022/12/23 00:08:17;;;;;;;36.63;16.17;;;6.30;99.90;;;;;;5026855;28;20212;-44
2022/12/23 00:10:45;;;;;;;30.37;15.37;;;6.30;99.90;;;;;;5016076;28;20223;-56
2022/12/23 00:16:06;;;;;;;32.83;17.10;;;6.30;99.90;;;;;;5025829;28;20196;-48
2022/12/23 00:18:33;;;;;;;29.27;15.07;;;6.30;99.90;;;;;;5027812;28;20192;-43
2022/12/23 00:21:01;;;;;;;30.43;15.77;;;6.30;99.90;;;;;;5023143;28;20204;-42
2022/12/23 00:23:28;;;;;;;33.57;17.50;;;6.30;99.90;;;;;;5027019;28;20294;-44
2022/12/23 00:25:56;;;;;;;34.00;16.73;;;6.30;99.90;;;;;;5026614;28;20203;-43
2022/12/23 00:28:27;;;;;;;35.53;17.47;;;6.30;99.90;;;;;;5017636;28;20207;-54
2022/12/23 00:30:58;;;;;;;35.40;17.60;;;6.30;99.90;;;;;;5038567;28;20715;-45
2022/12/23 00:33:26;;;;;;;31.10;18.20;;;6.30;99.90;;;;;;5028394;28;20599;-54
2022/12/23 00:35:53;;;;;;;34.73;17.13;;;6.30;99.90;;;;;;5025065;28;20199;-42
2022/12/23 00:42:52;;;;;;;31.03;16.80;;;6.30;99.90;;;;;;5029901;28;20200;-54
2022/12/23 00:43:57;;;;;;;26.33;16.17;;;6.30;99.90;;;;;;5016453;28;20646;-48
2022/12/23 00:46:23;;;;;;;31.77;16.20;;;6.30;99.90;;;;;;5031143;28;20195;-52
2022/12/23 00:51:35;;;;;;;30.37;16.00;;;6.30;99.90;;;;;;5027412;28;20184;-43
2022/12/23 00:54:02;;;;;;;29.93;16.53;;;6.30;99.90;;;;;;5028992;28;20286;-44
2022/12/23 00:56:30;;;;;;;32.47;17.70;;;6.30;99.90;;;;;;5034982;28;20219;-44
2022/12/23 00:58:57;;;;;;;34.10;18.53;;;6.30;99.90;;;;;;5019874;28;20688;-46
2022/12/23 01:06:55;;;;;;;34.17;18.07;;;6.30;99.90;;;;;;5045083;28;20320;-43
2022/12/23 01:09:22;;;;;;;33.23;17.87;;;6.30;99.90;;;;;;5025815;28;20666;-55
2022/12/23 01:11:51;;;;;;;34.80;18.23;;;6.30;99.90;;;;;;5024785;28;20204;-47
2022/12/23 01:14:17;;;;;;;31.17;17.03;;;6.30;99.90;;;;;;5011947;28;20220;-53
2022/12/23 01:16:44;;;;;;;35.70;19.37;;;6.30;99.90;;;;;;5039362;28;20237;-43
2022/12/23 01:19:11;;;;;;;37.40;18.93;;;6.30;99.90;;;;;;5029147;28;20204;-54
2022/12/23 01:21:38;;;;;;;32.80;17.70;;;6.30;99.90;;;;;;5032221;28;20200;-47
2022/12/23 01:24:06;;;;;;;42.23;18.97;;;6.30;99.90;;;;;;5024843;28;20571;-48
2022/12/23 01:26:32;;;;;;;36.30;18.67;;;6.30;99.90;;;;;;5021533;28;20447;-46
2022/12/23 01:29:01;;;;;;;32.20;17.20;;;6.30;99.90;;;;;;5015930;28;20208;-47
2022/12/23 01:31:29;;;;;;;35.50;18.53;;;6.30;99.90;;;;;;5029021;28;20200;-44
2022/12/23 01:33:56;;;;;;;39.00;18.10;;;6.30;99.90;;;;;;5025055;28;20228;-49
2022/12/23 01:36:23;;;;;;;30.27;17.43;;;6.30;99.90;;;;;;5021142;28;20287;-55
2022/12/23 01:38:50;;;;;;;36.13;17.40;;;6.30;99.90;;;;;;5025008;28;20219;-47
2022/12/23 01:42:42;;;;;;;30.57;16.93;;;6.30;99.90;;;;;;5023795;28;20207;-54
2022/12/23 01:44:36;;;;;;;40.00;19.43;;;6.30;99.90;;;;;;5020781;28;20219;-44
2022/12/23 01:47:09;;;;;;;34.57;18.77;;;6.30;99.90;;;;;;5023977;28;20195;-42
2022/12/23 01:49:36;;;;;;;35.23;16.97;;;6.30;99.90;;;;;;5027343;28;20191;-44
2022/12/23 01:52:04;;;;;;;32.53;17.13;;;6.30;99.90;;;;;;5035122;28;20192;-44
2022/12/23 01:54:32;;;;;;;37.70;18.50;;;6.30;99.90;;;;;;5018892;28;20212;-45
2022/12/23 01:56:59;;;;;;;35.90;18.07;;;6.40;99.90;;;;;;5025063;28;20286;-44
2022/12/23 02:04:58;;;;;;;32.43;17.80;;;6.40;99.90;;;;;;5024895;28;20208;-46
2022/12/23 02:10:10;;;;;;;31.77;16.47;;;6.40;99.90;;;;;;5033169;28;20550;-50
2022/12/23 02:12:45;;;;;;;34.27;18.23;;;6.40;99.90;;;;;;5021156;28;20206;-49
2022/12/23 02:18:40;;;;;;;34.43;18.40;;;6.40;99.90;;;;;;5026384;28;20219;-51
2022/12/23 02:21:23;;;;;;;41.30;19.77;;;6.30;99.90;;;;;;5021152;28;20200;-42
2022/12/23 02:24:33;;;;;;;32.77;17.97;;;6.30;99.90;;;;;;5016250;28;20223;-46
2022/12/23 02:27:09;;;;;;;38.40;18.67;;;6.30;99.90;;;;;;5027019;28;20200;-44
2022/12/23 02:30:23;;;;;;;40.20;19.10;;;6.30;99.90;;;;;;5009272;28;20215;-55
2022/12/23 02:33:08;;;;;;;36.67;19.13;;;6.40;99.90;;;;;;5028139;28;20241;-43
2022/12/23 02:35:43;;;;;;;34.37;18.83;;;6.30;99.90;;;;;;5026082;28;20196;-52
2022/12/23 02:38:15;;;;;;;34.50;18.53;;;6.30;99.90;;;;;;5028970;28;20212;-42
2022/12/23 02:40:54;;;;;;;40.57;19.43;;;6.30;99.90;;;;;;5018248;28;20198;-42
2022/12/23 02:43:35;;;;;;;34.03;19.57;;;6.30;99.90;;;;;;5025896;28;20247;-55
2022/12/23 02:46:08;;;;;;;43.03;19.97;;;6.30;99.90;;;;;;5019721;28;20252;-42
2022/12/23 02:48:43;;;;;;;36.57;19.00;;;6.40;99.90;;;;;;5029164;28;20199;-54
2022/12/23 02:51:13;;;;;;;36.43;18.77;;;6.30;99.90;;;;;;5052860;28;20635;-45
2022/12/23 02:53:44;;;;;;;33.23;17.33;;;6.30;99.90;;;;;;5038803;28;20219;-43
2022/12/23 02:56:14;;;;;;;30.37;16.90;;;6.30;99.90;;;;;;5043092;28;20203;-42
2022/12/23 02:58:45;;;;;;;41.63;20.23;;;6.30;99.90;;;;;;5019627;28;20216;-42
2022/12/23 03:01:15;;;;;;;39.07;20.20;;;6.30;99.90;;;;;;5010814;28;20212;-43
2022/12/23 03:03:45;;;;;;;38.67;20.07;;;6.30;99.90;;;;;;5028800;28;20285;-41
2022/12/23 03:06:21;;;;;;;33.70;18.23;;;6.40;99.90;;;;;;5032330;28;20564;-51
2022/12/23 03:08:50;;;;;;;33.53;18.70;;;6.40;99.90;;;;;;5020783;28;20218;-45
2022/12/23 03:11:18;;;;;;;36.27;20.27;;;6.40;99.90;;;;;;5023773;28;20200;-49
2022/12/23 03:14:13;;;;;;;37.60;19.13;;;6.40;99.90;;;;;;5022581;28;20216;-47
2022/12/23 03:16:52;;;;;;;32.40;17.97;;;6.40;99.90;;;;;;5010837;28;20215;-45
2022/12/23 03:19:30;;;;;;;40.83;19.80;;;6.40;99.90;;;;;;5033217;28;20207;-42
2022/12/23 03:22:04;;;;;;;38.13;21.13;;;6.40;99.90;;;;;;5022005;28;21000;-45
2022/12/23 03:24:39;;;;;;;38.07;19.50;;;6.40;99.90;;;;;;5021283;28;20218;-41
2022/12/23 03:27:11;;;;;;;40.07;21.60;;;6.40;99.90;;;;;;5031862;28;20195;-46
2022/12/23 03:29:43;;;;;;;37.13;19.50;;;6.40;99.90;;;;;;5020003;28;20201;-45
2022/12/23 03:32:14;;;;;;;35.77;18.67;;;6.40;99.90;;;;;;5017019;28;20285;-48
2022/12/23 03:34:46;;;;;;;35.73;19.57;;;6.40;99.90;;;;;;5027978;28;20218;-41
2022/12/23 03:37:16;;;;;;;41.80;20.97;;;6.40;99.90;;;;;;5031348;28;20617;-51
2022/12/23 03:39:47;;;;;;;41.90;19.90;;;6.40;99.90;;;;;;5019602;28;20220;-48
2022/12/23 03:42:22;;;;;;;45.67;22.70;;;6.40;99.90;;;;;;5023389;28;20215;-50
2022/12/23 03:44:51;;;;;;;41.80;21.03;;;6.40;99.90;;;;;;5023951;28;20223;-49
2022/12/23 03:47:23;;;;;;;47.87;21.83;;;6.40;99.90;;;;;;5020174;28;20200;-49
2022/12/23 03:49:55;;;;;;;40.93;20.63;;;6.40;99.90;;;;;;5034181;28;20415;-49
2022/12/23 03:52:27;;;;;;;43.47;21.90;;;6.40;99.90;;;;;;5023276;28;20666;-42
2022/12/23 03:54:56;;;;;;;48.60;21.77;;;6.40;99.90;;;;;;5037018;28;20930;-45
2022/12/23 03:57:28;;;;;;;45.80;22.37;;;6.40;99.90;;;;;;5022779;28;20228;-40
2022/12/23 03:59:55;;;;;;;48.47;21.77;;;6.50;99.90;;;;;;5021709;28;20206;-50
2022/12/23 04:02:26;;;;;;;48.63;22.53;;;6.40;99.90;;;;;;5013662;28;20242;-41
2022/12/23 04:05:18;;;;;;;46.83;23.43;;;6.40;99.90;;;;;;5032898;28;20211;-49
2022/12/23 04:07:50;;;;;;;47.40;21.87;;;6.40;99.90;;;;;;5026006;28;20792;-46
2022/12/23 04:10:17;;;;;;;48.70;23.60;;;6.40;99.90;;;;;;5023451;28;20203;-49
2022/12/23 04:12:44;;;;;;;50.57;23.30;;;6.40;99.90;;;;;;5019122;28;20297;-51
2022/12/23 04:15:11;;;;;;;49.47;23.13;;;6.40;99.90;;;;;;5020757;28;20223;-48
2022/12/23 04:17:38;;;;;;;46.97;24.47;;;6.50;99.90;;;;;;5008797;28;20234;-44
2022/12/23 04:20:08;;;;;;;48.33;22.67;;;6.40;99.90;;;;;;5032588;28;20205;-52
2022/12/23 04:22:34;;;;;;;49.57;22.70;;;6.50;99.90;;;;;;5028168;28;20682;-41
2022/12/23 04:25:02;;;;;;;47.27;22.87;;;6.40;99.90;;;;;;5026385;28;20226;-53
2022/12/23 04:27:28;;;;;;;52.27;24.37;;;6.50;99.90;;;;;;5024524;28;20631;-42
2022/12/23 04:29:55;;;;;;;55.37;24.53;;;6.50;99.90;;;;;;5034751;28;20195;-48
2022/12/23 04:32:22;;;;;;;50.47;24.10;;;6.40;99.90;;;;;;5026767;28;20204;-42
2022/12/23 04:34:49;;;;;;;58.47;24.13;;;6.40;99.90;;;;;;5027947;28;20222;-51
2022/12/23 04:37:17;;;;;;;47.53;22.20;;;6.50;99.90;;;;;;5028773;28;20204;-47
2022/12/23 04:39:44;;;;;;;57.67;23.47;;;6.40;99.90;;;;;;5027137;28;20822;-53
2022/12/23 04:42:11;;;;;;;53.10;23.10;;;6.40;99.90;;;;;;5027485;28;20223;-50
2022/12/23 04:44:38;;;;;;;55.17;24.33;;;6.40;99.90;;;;;;5017975;28;20694;-42
2022/12/23 04:47:05;;;;;;;54.40;24.93;;;6.40;99.90;;;;;;5025876;28;20288;-51
2022/12/23 04:49:54;;;;;;;54.83;25.43;;;6.40;99.90;;;;;;5020345;28;20222;-49
2022/12/23 04:52:22;;;;;;;51.77;24.17;;;6.40;99.90;;;;;;5030731;28;20199;-45
2022/12/23 04:54:49;;;;;;;56.90;24.43;;;6.40;99.90;;;;;;5023121;28;20223;-46
2022/12/23 04:57:16;;;;;;;58.03;25.17;;;6.40;99.90;;;;;;5041303;28;20725;-46
2022/12/23 04:59:43;;;;;;;59.73;24.30;;;6.40;99.90;;;;;;5022136;28;20238;-44
2022/12/23 05:02:10;;;;;;;54.83;25.43;;;6.40;99.90;;;;;;5025622;28;20204;-48
2022/12/23 05:04:37;;;;;;;60.63;25.40;;;6.50;99.90;;;;;;5007237;28;20312;-46
2022/12/23 05:07:04;;;;;;;57.77;25.57;;;6.40;99.90;;;;;;5035948;28;20200;-49
2022/12/23 05:09:32;;;;;;;60.33;23.53;;;6.40;99.90;;;;;;5023974;28;20203;-45
2022/12/23 05:11:59;;;;;;;51.60;24.40;;;6.40;99.90;;;;;;5025619;28;20666;-50
2022/12/23 05:14:26;;;;;;;61.67;25.60;;;6.40;99.90;;;;;;5023136;28;20263;-46
2022/12/23 05:16:53;;;;;;;57.17;24.73;;;6.40;99.90;;;;;;5025728;28;20316;-49
2022/12/23 05:19:20;;;;;;;54.10;24.93;;;6.40;99.90;;;;;;5016506;28;20220;-42
2022/12/23 05:21:47;;;;;;;53.20;25.37;;;6.40;99.90;;;;;;5025360;28;20242;-51
2022/12/23 05:24:15;;;;;;;62.00;25.23;;;6.40;99.90;;;;;;5027869;28;20223;-44
2022/12/23 05:26:46;;;;;;;56.87;24.90;;;6.40;99.90;;;;;;5022357;28;20259;-47
2022/12/23 05:29:13;;;;;;;58.57;26.07;;;6.40;99.90;;;;;;5025110;28;20200;-43
2022/12/23 05:31:40;;;;;;;61.17;26.07;;;6.40;99.90;;;;;;5020835;28;20203;-44
2022/12/23 05:34:07;;;;;;;59.03;25.47;;;6.40;99.90;;;;;;5025298;28;21017;-50
2022/12/23 05:36:34;;;;;;;70.63;26.73;;;6.40;99.90;;;;;;5009119;28;20196;-47
2022/12/23 05:39:02;;;;;;;63.00;25.53;;;6.40;99.90;;;;;;5028375;28;20219;-50
2022/12/23 05:41:28;;;;;;;62.10;25.50;;;6.40;99.90;;;;;;5022105;28;20561;-44
2022/12/23 05:43:57;;;;;;;61.97;25.77;;;6.40;99.90;;;;;;5024398;28;20686;-44
2022/12/23 05:46:24;;;;;;;70.70;25.73;;;6.40;99.90;;;;;;5021100;28;20208;-39
2022/12/23 05:48:51;;;;;;;62.80;25.63;;;6.40;99.90;;;;;;5027373;28;20235;-47
2022/12/23 05:51:18;;;;;;;61.90;24.63;;;6.40;99.90;;;;;;5015014;28;20239;-42
2022/12/23 05:53:45;;;;;;;62.30;25.80;;;6.40;99.90;;;;;;5024024;28;20223;-45
2022/12/23 05:56:11;;;;;;;60.40;25.93;;;6.40;99.90;;;;;;5024847;28;20200;-46
2022/12/23 05:58:38;;;;;;;74.17;27.30;;;6.40;99.90;;;;;;5021279;28;20224;-53
2022/12/23 06:01:06;;;;;;;72.07;27.27;;;6.40;99.90;;;;;;5024614;28;20605;-43
2022/12/23 06:03:33;;;;;;;66.37;26.50;;;6.40;99.90;;;;;;5018338;28;20226;-48
2022/12/23 06:06:00;;;;;;;74.83;29.97;;;6.40;99.90;;;;;;5013262;28;20210;-51
2022/12/23 06:08:27;;;;;;;66.90;26.80;;;6.40;99.90;;;;;;5027525;28;20221;-40
2022/12/23 06:10:54;;;;;;;74.07;28.70;;;6.40;99.90;;;;;;5027419;28;20232;-48
2022/12/23 06:13:20;;;;;;;69.27;27.53;;;6.40;99.90;;;;;;5022305;28;20315;-42
2022/12/23 06:15:48;;;;;;;71.27;27.50;;;6.30;99.90;;;;;;5022882;28;20230;-49
2022/12/23 06:18:16;;;;;;;68.47;27.33;;;6.40;99.90;;;;;;5030363;28;20699;-42
2022/12/23 06:20:45;;;;;;;73.67;26.67;;;6.40;99.90;;;;;;5020634;28;20937;-50
2022/12/23 06:23:13;;;;;;;63.57;25.27;;;6.40;99.90;;;;;;5013511;28;20219;-43
2022/12/23 06:25:40;;;;;;;65.30;26.27;;;6.30;99.90;;;;;;5023789;28;20214;-46
2022/12/23 06:28:07;;;;;;;70.37;26.43;;;6.30;99.90;;;;;;5023554;28;20188;-45
2022/12/23 06:30:34;;;;;;;68.70;25.67;;;6.30;99.90;;;;;;5039376;28;21465;-45
2022/12/23 06:33:01;;;;;;;62.70;24.70;;;6.30;99.90;;;;;;5026892;28;20250;-41
2022/12/23 06:35:48;;;;;;;62.53;23.97;;;6.30;99.90;;;;;;5026742;28;20219;-52
2022/12/23 06:38:15;;;;;;;65.20;23.47;;;6.30;99.90;;;;;;5009899;28;20220;-42
2022/12/23 06:40:42;;;;;;;73.80;25.47;;;6.30;99.90;;;;;;5033713;28;20253;-46
2022/12/23 06:43:12;;;;;;;65.37;24.90;;;6.30;99.90;;;;;;5031700;28;20233;-40
2022/12/23 06:45:39;;;;;;;76.87;23.63;;;6.30;99.90;;;;;;5033150;28;20250;-46
2022/12/23 06:48:24;;;;;;;72.53;23.40;;;6.30;99.90;;;;;;5030340;28;20202;-49
2022/12/23 06:50:52;;;;;;;78.30;22.57;;;6.30;99.90;;;;;;5034627;28;20212;-46
2022/12/23 06:53:19;;;;;;;114.17;25.83;;;6.30;99.90;;;;;;5008440;28;20223;-52
2022/12/23 06:55:46;;;;;;;100.10;25.70;;;6.20;99.90;;;;;;5032822;28;20243;-53
2022/12/23 06:58:12;;;;;;;92.97;25.87;;;6.20;99.90;;;;;;5022366;28;20560;-43
2022/12/23 07:00:39;;;;;;;99.27;25.37;;;6.20;99.90;;;;;;5032135;28;20574;-49
2022/12/23 07:03:06;;;;;;;86.83;24.03;;;6.20;99.90;;;;;;5019259;28;20231;-41
2022/12/23 07:05:33;;;;;;;69.60;23.63;;;6.20;99.90;;;;;;5023638;28;22882;-45
2022/12/23 07:08:02;;;;;;;105.70;26.17;;;6.20;99.90;;;;;;5033463;28;20665;-42
2022/12/23 07:10:29;;;;;;;103.93;26.23;;;6.20;99.90;;;;;;5023704;28;20195;-46
2022/12/23 07:12:57;;;;;;;117.10;24.77;;;6.20;99.90;;;;;;5035315;28;20222;-46
2022/12/23 07:15:23;;;;;;;80.07;25.33;;;6.20;99.90;;;;;;5023918;28;20223;-41
2022/12/23 07:17:50;;;;;;;77.17;24.30;;;6.20;99.90;;;;;;5028794;28;20296;-49
2022/12/23 07:20:17;;;;;;;73.03;22.97;;;6.20;99.90;;;;;;5027034;28;20231;-48
2022/12/23 07:22:44;;;;;;;105.13;24.27;;;6.20;99.90;;;;;;5021280;28;20997;-49
2022/12/23 07:25:13;;;;;;;88.73;25.53;;;6.20;99.90;;;;;;5015911;28;20199;-49
2022/12/23 07:27:40;;;;;;;81.50;23.33;;;6.20;99.90;;;;;;5024610;28;20647;-45
2022/12/23 07:30:08;;;;;;;69.50;24.17;;;6.20;99.90;;;;;;5028678;28;20196;-46
2022/12/23 07:32:35;;;;;;;68.87;23.63;;;6.20;99.90;;;;;;5030748;28;20200;-42
2022/12/23 07:35:02;;;;;;;69.20;21.30;;;6.20;99.90;;;;;;5022186;28;20674;-45
2022/12/23 07:37:29;;;;;;;60.07;20.20;;;6.20;99.90;;;;;;5024003;28;20207;-39
2022/12/23 07:39:56;;;;;;;63.50;21.43;;;6.20;99.90;;;;;;5011460;28;20313;-47
2022/12/23 07:42:25;;;;;;;62.27;20.10;;;6.20;99.90;;;;;;5030376;28;20195;-44
2022/12/23 07:44:51;;;;;;;57.87;20.83;;;6.20;99.90;;;;;;5032383;28;20211;-51
2022/12/23 07:47:18;;;;;;;96.40;22.10;;;6.20;99.90;;;;;;5036688;28;20195;-46
2022/12/23 07:49:44;;;;;;;78.57;22.37;;;6.20;99.90;;;;;;5028571;28;20307;-47
2022/12/23 07:52:11;;;;;;;84.13;21.13;;;6.20;99.90;;;;;;5015575;28;20215;-46
2022/12/23 07:54:38;;;;;;;81.00;19.50;;;6.20;99.90;;;;;;5019155;28;20227;-46
2022/12/23 07:57:05;;;;;;;102.23;21.97;;;6.20;99.90;;;;;;5026055;28;20215;-41
2022/12/23 07:59:33;;;;;;;89.23;22.50;;;6.20;99.90;;;;;;5031654;28;20227;-53
2022/12/23 08:01:59;;;;;;;94.97;21.63;;;6.20;99.90;;;;;;5028794;28;20208;-42
2022/12/23 08:04:26;;;;;;;93.80;23.27;;;6.20;99.90;;;;;;5032508;28;20226;-48
2022/12/23 08:06:54;;;;;;;73.97;20.53;;;6.20;99.90;;;;;;5027317;28;20200;-42
2022/12/23 08:09:20;;;;;;;97.97;22.80;;;6.20;99.90;;;;;;5026310;28;20191;-49
2022/12/23 08:11:47;;;;;;;60.10;19.47;;;6.20;99.90;;;;;;5032373;28;20227;-42
2022/12/23 08:14:14;;;;;;;94.97;21.10;;;6.20;99.90;;;;;;5024230;28;20219;-44
2022/12/23 08:16:42;;;;;;;100.40;22.00;;;6.30;99.90;;;;;;5043052;28;20709;-46
2022/12/23 08:19:09;;;;;;;113.73;22.10;;;6.20;99.90;;;;;;5035460;28;20211;-46
2022/12/23 08:21:36;;;;;;;94.43;20.67;;;6.20;99.90;;;;;;5023513;28;20218;-44
2022/12/23 08:24:03;;;;;;;115.63;21.73;;;6.20;99.90;;;;;;5026563;28;20258;-46
2022/12/23 08:26:32;;;;;;;119.97;24.00;;;6.20;99.90;;;;;;5013299;28;20210;-50
2022/12/23 08:29:00;;;;;;;117.60;22.00;;;6.30;99.90;;;;;;5022869;28;20191;-47
2022/12/23 08:31:28;;;;;;;145.57;23.03;;;6.20;99.90;;;;;;5025096;28;20200;-44
2022/12/23 08:33:59;;;;;;;77.47;19.93;;;6.30;99.90;;;;;;5038474;28;20227;-49
2022/12/23 08:36:29;;;;;;;96.07;20.07;;;6.20;99.90;;;;;;5026979;28;20216;-47
2022/12/23 08:38:58;;;;;;;95.43;20.27;;;6.20;99.90;;;;;;5024639;28;20216;-49
2022/12/23 08:41:28;;;;;;;92.90;21.17;;;6.20;99.90;;;;;;5008061;28;20230;-42
2022/12/23 08:43:55;;;;;;;112.73;21.17;;;6.30;99.90;;;;;;5029508;28;20273;-53
2022/12/23 08:46:23;;;;;;;82.43;20.60;;;6.30;99.90;;;;;;5015854;28;20556;-48
2022/12/23 08:48:50;;;;;;;99.70;20.13;;;6.30;99.90;;;;;;5043416;28;20191;-46
2022/12/23 08:51:20;;;;;;;91.03;21.10;;;6.30;99.90;;;;;;5035158;28;20351;-49
2022/12/23 08:53:48;;;;;;;131.07;21.90;;;6.30;99.90;;;;;;5028561;28;20309;-43
2022/12/23 08:56:18;;;;;;;70.03;19.07;;;6.30;99.90;;;;;;5010593;28;20212;-51
2022/12/23 08:58:46;;;;;;;90.03;19.43;;;6.30;99.90;;;;;;5024435;28;20211;-42
2022/12/23 09:01:16;;;;;;;87.40;21.47;;;6.40;99.90;;;;;;5017470;28;20208;-48
2022/12/23 09:03:44;;;;;;;79.13;19.90;;;6.30;99.90;;;;;;5022080;28;20591;-48
2022/12/23 09:06:13;;;;;;;68.67;20.40;;;6.40;99.90;;;;;;5029204;28;20192;-43
2022/12/23 09:08:42;;;;;;;69.20;20.17;;;6.40;99.90;;;;;;5046995;28;20200;-46
2022/12/23 09:11:09;;;;;;;64.43;18.63;;;6.40;99.90;;;;;;5023774;28;20204;-41
2022/12/23 09:13:36;;;;;;;60.63;19.90;;;6.40;99.90;;;;;;5015069;28;20227;-48
2022/12/23 09:16:03;;;;;;;59.97;18.53;;;6.30;99.90;;;;;;5027223;28;20238;-42
2022/12/23 09:18:30;;;;;;;55.53;16.70;;;6.40;99.90;;;;;;5032153;28;20917;-48
2022/12/23 09:20:58;;;;;;;58.50;18.03;;;6.40;99.90;;;;;;5029378;28;20224;-45
2022/12/23 09:23:25;;;;;;;51.87;18.57;;;6.30;99.90;;;;;;5044396;28;20215;-45
2022/12/23 09:25:54;;;;;;;52.47;18.60;;;6.40;99.90;;;;;;5025513;28;20207;-52
2022/12/23 09:28:21;;;;;;;55.27;18.13;;;6.40;99.90;;;;;;5007423;28;20638;-47
2022/12/23 09:30:48;;;;;;;58.83;18.70;;;6.40;99.90;;;;;;5022572;28;20214;-50
2022/12/23 09:33:15;;;;;;;49.17;18.07;;;6.40;99.90;;;;;;5029288;28;20226;-43
2022/12/23 09:35:42;;;;;;;58.70;19.33;;;6.50;99.90;;;;;;5025783;28;20204;-46
2022/12/23 09:38:09;;;;;;;54.37;18.73;;;6.50;99.90;;;;;;5033439;28;20207;-41
2022/12/23 09:40:38;;;;;;;51.27;18.83;;;6.40;99.90;;;;;;5022150;28;20215;-50
2022/12/23 09:43:17;;;;;;;55.83;19.00;;;6.50;99.90;;;;;;5012272;28;20231;-45
2022/12/23 09:45:58;;;;;;;51.40;18.40;;;6.50;99.90;;;;;;5029818;28;20207;-49
2022/12/23 09:48:32;;;;;;;59.00;20.33;;;6.50;99.90;;;;;;5029064;28;20896;-48
2022/12/23 09:51:00;;;;;;;61.10;18.90;;;6.50;99.90;;;;;;5025792;28;20570;-50
2022/12/23 09:53:35;;;;;;;52.10;19.50;;;6.50;99.90;;;;;;5033687;28;21011;-46
2022/12/23 09:56:08;;;;;;;50.20;19.93;;;6.50;99.90;;;;;;5027539;28;20527;-40
2022/12/23 09:58:46;;;;;;;55.83;18.83;;;6.50;99.90;;;;;;5014322;28;20266;-52
2022/12/23 10:01:18;;;;;;;50.27;18.77;;;6.50;99.90;;;;;;5027249;28;20314;-40
2022/12/23 10:04:24;;;;;;;57.87;20.03;;;6.50;99.90;;;;;;5032738;28;20223;-47
2022/12/23 10:06:56;;;;;;;53.83;18.67;;;6.50;99.90;;;;;;5009528;28;20207;-45
2022/12/23 10:09:23;;;;;;;66.90;20.40;;;6.60;99.90;;;;;;5025912;28;20196;-47
2022/12/23 10:11:52;;;;;;;51.40;19.50;;;6.60;99.90;;;;;;5020974;28;20199;-49
2022/12/23 10:14:24;;;;;;;55.80;18.83;;;6.50;99.90;;;;;;5009312;28;20228;-44
2022/12/23 10:16:55;;;;;;;47.17;17.63;;;6.60;99.90;;;;;;5030653;28;20565;-48
2022/12/23 10:19:28;;;;;;;59.53;20.70;;;6.60;99.90;;;;;;5024360;28;20220;-42
2022/12/23 10:22:01;;;;;;;48.67;17.87;;;6.50;99.90;;;;;;5026064;28;20835;-46
2022/12/23 10:24:34;;;;;;;57.57;19.10;;;6.60;99.90;;;;;;5028153;28;20207;-47
2022/12/23 10:27:05;;;;;;;56.53;19.53;;;6.60;99.90;;;;;;5037400;28;20670;-48
2022/12/23 10:29:34;;;;;;;54.30;19.07;;;6.60;99.90;;;;;;5006475;28;20285;-49
2022/12/23 10:32:13;;;;;;;58.43;18.77;;;6.60;99.90;;;;;;5030336;28;20207;-45
2022/12/23 10:34:49;;;;;;;63.07;18.87;;;6.60;99.90;;;;;;5026625;28;20301;-52
2022/12/23 10:37:27;;;;;;;49.17;19.97;;;6.70;99.90;;;;;;5023089;28;20203;-41
2022/12/23 10:40:08;;;;;;;63.33;20.50;;;6.60;99.90;;;;;;5036779;28;20211;-47
2022/12/23 10:42:41;;;;;;;52.90;19.53;;;6.60;99.90;;;;;;5024095;28;20278;-47
2022/12/23 10:45:32;;;;;;;57.07;20.27;;;6.60;99.90;;;;;;5013349;28;20216;-44
2022/12/23 10:48:13;;;;;;;46.03;18.03;;;6.60;99.90;;;;;;5021875;28;20261;-48
2022/12/23 10:50:53;;;;;;;50.93;18.87;;;6.60;99.90;;;;;;5024541;28;20277;-41
2022/12/23 10:53:29;;;;;;;47.80;19.27;;;6.70;99.90;;;;;;5041696;28;20225;-47
2022/12/23 10:55:57;;;;;;;58.77;18.60;;;6.60;99.90;;;;;;5029541;28;20195;-44
2022/12/23 10:58:26;;;;;;;53.83;18.83;;;6.60;99.90;;;;;;5030993;28;20195;-39
2022/12/23 11:00:57;;;;;;;48.03;17.80;;;6.60;99.90;;;;;;5014761;28;20243;-50
2022/12/23 11:03:28;;;;;;;42.00;17.23;;;6.60;99.90;;;;;;5016138;28;20215;-41
2022/12/23 11:05:57;;;;;;;48.83;17.20;;;6.60;99.90;;;;;;5036739;28;20665;-46
2022/12/23 11:08:27;;;;;;;48.90;17.40;;;6.60;99.90;;;;;;5029000;28;20237;-40
2022/12/23 11:10:55;;;;;;;44.33;18.50;;;6.60;99.90;;;;;;5041659;28;20199;-45
2022/12/23 11:13:34;;;;;;;43.37;17.70;;;6.70;99.90;;;;;;5025453;28;20624;-41
2022/12/23 11:16:17;;;;;;;44.80;17.63;;;6.70;99.90;;;;;;5014429;28;20211;-46
2022/12/23 11:18:54;;;;;;;41.87;16.00;;;6.70;99.90;;;;;;5027361;28;20203;-44
2022/12/23 11:21:21;;;;;;;39.87;16.50;;;6.70;99.90;;;;;;5026298;28;20216;-41
2022/12/23 11:23:48;;;;;;;42.33;16.70;;;6.70;99.90;;;;;;5022790;28;20227;-47
2022/12/23 11:26:19;;;;;;;45.77;17.10;;;6.80;99.90;;;;;;5031656;28;20203;-46
2022/12/23 11:28:50;;;;;;;45.10;17.17;;;6.80;99.90;;;;;;5033295;28;20204;-48
2022/12/23 11:31:26;;;;;;;48.93;17.20;;;6.80;99.90;;;;;;5013190;28;20211;-42
2022/12/23 11:33:58;;;;;;;44.43;16.17;;;6.80;99.90;;;;;;5041716;28;20215;-45
2022/12/23 11:36:27;;;;;;;43.13;15.63;;;6.80;99.90;;;;;;5022517;28;20254;-41
2022/12/23 11:39:01;;;;;;;51.00;17.67;;;6.80;99.90;;;;;;5045392;28;20203;-48
2022/12/23 11:41:33;;;;;;;37.87;16.40;;;6.90;99.90;;;;;;5029591;28;20215;-44
2022/12/23 11:44:05;;;;;;;41.07;16.10;;;6.90;99.90;;;;;;5037725;28;20211;-46
2022/12/23 11:46:34;;;;;;;35.20;15.80;;;6.90;99.90;;;;;;5023304;28;20207;-47
2022/12/23 11:49:06;;;;;;;40.63;15.67;;;6.80;99.90;;;;;;5035615;28;20231;-49
2022/12/23 11:51:33;;;;;;;43.00;15.20;;;6.80;99.90;;;;;;5020819;28;20196;-43
2022/12/23 11:54:01;;;;;;;39.93;15.43;;;6.80;99.90;;;;;;5032615;28;20255;-46
2022/12/23 11:56:33;;;;;;;41.47;17.30;;;6.80;99.90;;;;;;5030405;28;20200;-48
2022/12/23 11:59:05;;;;;;;49.30;17.80;;;6.80;99.90;;;;;;5027274;28;20208;-48
2022/12/23 12:01:34;;;;;;;46.87;17.13;;;6.80;99.90;;;;;;5018439;28;20669;-52
2022/12/23 12:04:03;;;;;;;42.87;16.87;;;6.90;99.90;;;;;;5037883;28;20208;-50
2022/12/23 12:06:32;;;;;;;48.90;16.83;;;6.90;99.90;;;;;;5025157;28;20850;-48
2022/12/23 12:09:02;;;;;;;51.93;15.90;;;6.90;99.90;;;;;;5019330;28;20329;-45
2022/12/23 12:11:37;;;;;;;50.90;16.93;;;7.00;99.90;;;;;;5034607;28;20192;-49
2022/12/23 12:14:07;;;;;;;41.27;16.33;;;7.00;99.90;;;;;;5024969;28;20254;-42
2022/12/23 12:16:51;;;;;;;46.83;17.03;;;7.00;99.90;;;;;;5037598;28;20195;-44
2022/12/23 12:19:22;;;;;;;37.87;16.17;;;7.00;99.90;;;;;;5018315;28;20203;-45
2022/12/23 12:21:53;;;;;;;44.33;16.70;;;7.00;99.90;;;;;;5026557;28;20216;-46
2022/12/23 12:24:24;;;;;;;38.03;15.13;;;6.90;99.90;;;;;;5020858;28;20317;-50
2022/12/23 12:26:54;;;;;;;46.27;15.67;;;7.00;99.90;;;;;;5039112;28;20203;-47
2022/12/23 12:29:27;;;;;;;36.30;15.00;;;7.00;99.90;;;;;;5024771;28;20205;-46
2022/12/23 12:31:58;;;;;;;39.63;15.50;;;7.00;99.90;;;;;;5037767;28;20188;-46
2022/12/23 12:34:41;;;;;;;34.67;14.80;;;7.00;99.90;;;;;;5007048;28;20589;-51
2022/12/23 12:37:19;;;;;;;39.00;15.77;;;7.00;99.90;;;;;;5023059;28;20408;-52
2022/12/23 12:39:53;;;;;;;41.90;15.87;;;7.00;99.90;;;;;;5035881;28;20211;-45
2022/12/23 12:42:27;;;;;;;43.83;16.37;;;7.00;99.90;;;;;;5023770;28;20329;-48
2022/12/23 12:45:00;;;;;;;44.13;16.10;;;7.10;99.90;;;;;;5020003;28;20227;-43
2022/12/23 12:47:33;;;;;;;38.17;16.00;;;7.00;99.90;;;;;;5027667;28;20215;-47
2022/12/23 12:50:06;;;;;;;39.73;14.90;;;7.00;99.90;;;;;;5020981;28;20203;-44
2022/12/23 12:52:39;;;;;;;43.13;15.77;;;7.10;99.90;;;;;;5033087;28;20196;-47
2022/12/23 12:55:16;;;;;;;38.00;16.27;;;7.10;99.90;;;;;;5036331;28;20199;-52
2022/12/23 12:57:42;;;;;;;40.33;15.00;;;7.10;99.90;;;;;;5032238;28;20827;-48
2022/12/23 13:00:15;;;;;;;32.67;14.97;;;7.10;99.90;;;;;;5018566;28;20216;-49
2022/12/23 13:03:11;;;;;;;39.20;15.93;;;7.20;99.90;;;;;;5034869;28;20645;-47
2022/12/23 13:06:06;;;;;;;38.50;14.67;;;7.20;99.90;;;;;;5013996;28;20342;-53
2022/12/23 13:08:47;;;;;;;33.00;14.57;;;7.20;99.90;;;;;;5033772;28;20207;-47
2022/12/23 13:11:21;;;;;;;36.87;15.03;;;7.20;99.90;;;;;;5041346;28;20322;-48
2022/12/23 13:13:56;;;;;;;36.60;14.90;;;7.20;99.90;;;;;;5034190;28;20301;-43
2022/12/23 13:16:33;;;;;;;40.47;14.30;;;7.20;99.90;;;;;;5027343;28;20221;-43
2022/12/23 13:19:08;;;;;;;33.67;14.63;;;7.20;99.90;;;;;;5032118;28;21062;-50